createdAt,value
2023-03-24T00:00:02.827Z,0
2023-03-24T00:05:02.372Z,0
2023-03-24T00:10:03.148Z,0
2023-03-24T00:15:02.888Z,0
2023-03-24T00:20:03.224Z,0
2023-03-24T00:25:02.631Z,0
2023-03-24T00:30:02.645Z,0
2023-03-24T00:35:03.023Z,0
2023-03-24T00:40:02.935Z,0
2023-03-24T00:45:02.719Z,0
2023-03-24T00:50:02.496Z,0
2023-03-24T00:55:02.823Z,0
2023-03-24T01:00:02.571Z,0
2023-03-24T01:05:03.300Z,0
2023-03-24T01:10:03.175Z,0
2023-03-24T01:15:03.006Z,0
2023-03-24T01:20:02.875Z,0
2023-03-24T01:25:02.536Z,0
2023-03-24T01:30:03.241Z,0
2023-03-24T01:35:03.460Z,0
2023-03-24T01:40:03.072Z,0
2023-03-24T01:45:03.051Z,0
2023-03-24T01:50:02.657Z,0
2023-03-24T01:55:03.864Z,0
2023-03-24T02:00:03.344Z,0
2023-03-24T02:05:03.003Z,0
2023-03-24T02:10:02.700Z,0
2023-03-24T02:15:02.962Z,0
2023-03-24T02:20:02.732Z,0
2023-03-24T02:25:02.555Z,0
2023-03-24T02:30:02.768Z,0
2023-03-24T02:35:02.437Z,0
2023-03-24T02:40:03.205Z,0
2023-03-24T02:45:03.119Z,0
2023-03-24T02:50:03.035Z,0
2023-03-24T02:55:04.045Z,0
2023-03-24T03:00:02.739Z,0
2023-03-24T03:05:03.363Z,0
2023-03-24T03:10:03.052Z,0
2023-03-24T03:15:02.730Z,0
2023-03-24T03:20:02.712Z,0
2023-03-24T03:25:02.875Z,0
2023-03-24T03:30:03.243Z,0
2023-03-24T03:35:03.195Z,0
2023-03-24T03:40:02.906Z,0
2023-03-24T03:45:02.797Z,0
2023-03-24T03:50:02.483Z,0
2023-03-24T03:55:04.172Z,0
2023-03-24T04:00:03.182Z,0
2023-03-24T04:05:07.148Z,0
2023-03-24T04:10:02.959Z,0
2023-03-24T04:15:02.737Z,0
2023-03-24T04:20:02.871Z,0
2023-03-24T04:25:03.286Z,0
2023-03-24T04:30:03.084Z,0
2023-03-24T04:35:02.629Z,0.45
2023-03-24T04:40:02.475Z,1.47
2023-03-24T04:45:03.311Z,2.6
2023-03-24T04:50:03.037Z,5.09
2023-03-24T04:55:03.698Z,10.07
2023-03-24T05:00:02.464Z,20
2023-03-24T05:05:03.204Z,46.67
2023-03-24T05:10:03.096Z,36.67
2023-03-24T05:15:02.872Z,43.33
2023-03-24T05:20:02.727Z,51.67
2023-03-24T05:25:02.633Z,95
2023-03-24T05:30:03.361Z,121.67
2023-03-24T05:35:02.985Z,180
2023-03-24T05:40:02.783Z,190
2023-03-24T05:45:02.554Z,210
2023-03-24T05:50:03.198Z,343.33
2023-03-24T05:55:03.707Z,526.67
2023-03-24T06:00:02.880Z,688.33
2023-03-24T06:05:02.571Z,720
2023-03-24T06:10:03.403Z,828.33
2023-03-24T06:15:03.063Z,881.67
2023-03-24T06:20:02.794Z,875
2023-03-24T06:25:02.701Z,788.33
2023-03-24T06:30:03.415Z,965
2023-03-24T06:35:03.099Z,1201.67
2023-03-24T06:40:02.863Z,1285
2023-03-24T06:45:03.328Z,970
2023-03-24T06:50:03.064Z,978.33
2023-03-24T06:55:03.016Z,975
2023-03-24T07:00:02.586Z,1433.33
2023-03-24T07:05:03.384Z,1595
2023-03-24T07:10:02.872Z,1898.33
2023-03-24T07:15:02.552Z,1488.33
2023-03-24T07:20:03.237Z,1420
2023-03-24T07:25:03.064Z,1760
2023-03-24T07:30:03.209Z,1775
2023-03-24T07:35:02.844Z,2545
2023-03-24T07:45:02.719Z,1365
2023-03-24T07:50:02.516Z,1083.33
2023-03-24T07:55:04.002Z,1820
2023-03-24T08:00:02.875Z,1655
2023-03-24T08:05:02.821Z,1600
2023-03-24T08:10:02.373Z,1768.33
2023-03-24T08:15:03.400Z,2588.33
2023-03-24T08:20:06.235Z,1920
2023-03-24T08:25:03.180Z,2133.33
2023-03-24T08:30:02.490Z,2665
2023-03-24T08:35:03.237Z,2690
2023-03-24T08:40:02.888Z,4005
2023-03-24T08:45:02.679Z,4366.67
2023-03-24T08:50:02.622Z,6661.67
2023-03-24T08:55:03.878Z,10666.67
2023-03-24T09:00:02.942Z,10023.33
2023-03-24T09:05:02.665Z,6826.67
2023-03-24T09:10:02.359Z,10263.33
2023-03-24T09:15:03.088Z,34576.67
2023-03-24T09:20:03.538Z,12758.33
2023-03-24T09:25:03.116Z,8196.67
2023-03-24T09:30:02.879Z,40406.67
2023-03-24T09:35:03.057Z,8450
2023-03-24T09:40:02.813Z,31670
2023-03-24T09:45:02.556Z,36540
2023-03-24T09:50:03.451Z,33683.33
2023-03-24T09:55:04.071Z,11635
2023-03-24T10:00:02.612Z,12055
2023-03-24T10:05:02.503Z,34680
2023-03-24T10:10:02.626Z,10371.67
2023-03-24T10:15:02.568Z,6063.33
2023-03-24T10:20:03.299Z,6501.67
2023-03-24T10:25:02.925Z,5950
2023-03-24T10:30:02.805Z,2293.33
2023-03-24T10:35:02.536Z,1770
2023-03-24T10:40:02.643Z,4503.33
2023-03-24T10:45:02.426Z,3716.67
2023-03-24T10:50:14.941Z,3320
2023-03-24T10:55:03.636Z,3905
2023-03-24T11:00:02.590Z,5160
2023-03-24T11:05:03.221Z,7380
2023-03-24T11:10:02.449Z,5746.67
2023-03-24T11:15:20.828Z,5826.67
2023-03-24T11:20:03.368Z,5081.67
2023-03-24T11:25:03.018Z,6140
2023-03-24T11:30:02.824Z,6713.33
2023-03-24T11:35:02.863Z,5323.33
2023-03-24T11:40:02.566Z,5506.67
2023-03-24T11:45:02.498Z,4145
2023-03-24T11:50:03.273Z,3843.33
2023-03-24T11:55:03.736Z,3201.67
2023-03-24T12:00:02.861Z,2281.67
2023-03-24T12:05:02.662Z,2575
2023-03-24T12:10:03.338Z,3420
2023-03-24T12:15:02.657Z,3063.33
2023-03-24T12:20:03.195Z,3670
2023-03-24T12:25:03.098Z,5618.33
2023-03-24T12:30:02.845Z,6366.67
2023-03-24T12:35:02.656Z,6241.67
2023-03-24T12:40:03.340Z,3796.67
2023-03-24T12:45:03.330Z,4508.33
2023-03-24T12:50:03.047Z,4165
2023-03-24T12:55:03.363Z,4833.33
2023-03-24T13:00:02.883Z,5440
2023-03-24T13:05:02.544Z,2896.67
2023-03-24T13:10:03.210Z,2586.67
2023-03-24T13:15:03.108Z,3028.33
2023-03-24T13:20:03.004Z,3976.67
2023-03-24T13:25:02.737Z,4225
2023-03-24T13:30:02.633Z,3380
2023-03-24T13:35:03.226Z,3460
2023-03-24T13:40:03.197Z,4008.33
2023-03-24T13:45:02.903Z,4210
2023-03-24T13:50:02.676Z,4033.33
2023-03-24T13:55:03.382Z,3155
2023-03-24T14:00:03.408Z,3630
2023-03-24T14:05:03.013Z,5156.67
2023-03-24T14:10:02.736Z,3993.33
2023-03-24T14:15:02.482Z,5576.67
2023-03-24T14:20:03.094Z,2876.67
2023-03-24T14:25:02.972Z,4800
2023-03-24T14:30:02.993Z,4283.33
2023-03-24T14:35:02.760Z,2986.67
2023-03-24T14:40:02.766Z,7181.67
2023-03-24T14:45:03.594Z,4126.67
2023-03-24T14:50:03.315Z,4950
2023-03-24T14:55:03.356Z,4438.33
2023-03-24T15:00:02.828Z,5918.33
2023-03-24T15:05:02.460Z,5261.67
2023-03-24T15:10:03.332Z,7265
2023-03-24T15:15:03.051Z,8520
2023-03-24T15:20:03.056Z,5400
2023-03-24T15:25:02.814Z,9293.33
2023-03-24T15:30:02.745Z,8286.67
2023-03-24T15:35:02.440Z,6826.67
2023-03-24T15:40:16.146Z,7603.33
2023-03-24T15:45:03.131Z,3638.33
2023-03-24T15:50:06.175Z,4471.67
2023-03-24T15:55:03.806Z,5308.33
2023-03-24T16:00:02.926Z,5256.67
2023-03-24T16:10:03.125Z,3881.67
2023-03-24T16:15:02.851Z,3571.67
2023-03-24T16:20:02.580Z,3371.67
2023-03-24T16:25:02.610Z,2773.33
2023-03-24T16:30:03.369Z,2285
2023-03-24T16:35:02.983Z,1190
2023-03-24T16:40:04.088Z,1033.33
2023-03-24T16:45:02.844Z,963.33
2023-03-24T16:50:02.854Z,1010
2023-03-24T16:55:03.526Z,1181.67
2023-03-24T17:00:02.922Z,935
2023-03-24T17:05:02.624Z,823.33
2023-03-24T17:10:03.559Z,551.67
2023-03-24T17:15:03.346Z,458.33
2023-03-24T17:20:05.707Z,313.33
2023-03-24T17:25:02.808Z,196.67
2023-03-24T17:30:03.275Z,121.67
2023-03-24T17:35:02.708Z,63.33
2023-03-24T17:40:02.375Z,33.33
2023-03-24T17:45:03.377Z,13.33
2023-03-24T17:50:03.038Z,5
2023-03-24T17:55:03.583Z,5.09
2023-03-24T18:00:02.706Z,2.15
2023-03-24T18:05:03.293Z,0.91
2023-03-24T18:10:03.192Z,0.23
2023-03-24T18:15:03.009Z,0
2023-03-24T18:20:02.735Z,0
2023-03-24T18:25:02.652Z,0
2023-03-24T18:30:03.431Z,0
2023-03-24T18:35:02.995Z,0
2023-03-24T18:40:02.752Z,0
2023-03-24T18:45:02.639Z,0
2023-03-24T18:50:02.510Z,0
2023-03-24T18:55:03.491Z,0
2023-03-24T19:00:03.053Z,0
2023-03-24T19:05:02.777Z,0
2023-03-24T19:10:02.580Z,0
2023-03-24T19:15:03.379Z,0
2023-03-24T19:20:03.116Z,0
2023-03-24T19:25:02.836Z,0
2023-03-24T19:30:02.883Z,0
2023-03-24T19:35:03.275Z,0
2023-03-24T19:40:02.934Z,0
2023-03-24T19:45:02.640Z,0
2023-03-24T19:50:03.619Z,0
2023-03-24T19:55:03.649Z,0
2023-03-24T20:00:02.863Z,0
2023-03-24T20:05:02.671Z,0
2023-03-24T20:10:02.704Z,0
2023-03-24T20:15:02.717Z,0
2023-03-24T20:20:02.508Z,0
2023-03-24T20:25:03.121Z,0
2023-03-24T20:30:03.005Z,0
2023-03-24T20:35:02.765Z,0
2023-03-24T20:40:02.452Z,0
2023-03-24T20:45:03.436Z,0
2023-03-24T20:50:02.859Z,0
2023-03-24T20:55:04.021Z,0
2023-03-24T21:00:03.051Z,0
2023-03-24T21:10:02.516Z,0
2023-03-24T21:15:03.327Z,0
2023-03-24T21:20:03.205Z,0
2023-03-24T21:25:02.842Z,0
2023-03-24T21:30:02.556Z,0
2023-03-24T21:35:02.424Z,0
2023-03-24T21:40:02.532Z,0
2023-03-24T21:45:03.252Z,0
2023-03-24T21:50:02.911Z,0
2023-03-24T21:55:03.281Z,0
2023-03-24T22:00:02.474Z,0
2023-03-24T22:05:03.252Z,0
2023-03-24T22:10:03.126Z,0
2023-03-24T22:15:02.796Z,0
2023-03-24T22:20:02.715Z,0
2023-03-24T22:25:02.526Z,0
2023-03-24T22:30:02.597Z,0
2023-03-24T22:35:03.331Z,0
2023-03-24T22:40:03.347Z,0
2023-03-24T22:45:03.282Z,0
2023-03-24T22:50:03.391Z,0
2023-03-24T22:55:03.750Z,0
2023-03-24T23:00:02.790Z,0
2023-03-24T23:05:03.395Z,0
2023-03-24T23:10:03.034Z,0
2023-03-24T23:15:03.062Z,0
2023-03-24T23:20:02.500Z,0
2023-03-24T23:25:03.572Z,0
2023-03-24T23:30:03.050Z,0
2023-03-24T23:35:02.781Z,0
2023-03-24T23:40:02.886Z,0
2023-03-24T23:45:02.619Z,0
2023-03-24T23:50:02.444Z,0
2023-03-24T23:55:03.673Z,0
